createdAt,value
2023-01-18T00:01:01.217Z,1.65
2023-01-18T00:03:33.358Z,1.60
2023-01-18T00:06:04.509Z,1.60
2023-01-18T00:08:35.485Z,2.17
2023-01-18T00:11:05.318Z,1.83
2023-01-18T00:13:34.078Z,1.30
2023-01-18T00:16:06.814Z,1.50
2023-01-18T00:18:36.114Z,2.08
2023-01-18T00:21:09.431Z,3.92
2023-01-18T00:23:38.933Z,1.50
2023-01-18T00:26:09.730Z,1.83
2023-01-18T00:28:39.222Z,2.00
2023-01-18T00:31:11.735Z,1.83
2023-01-18T00:33:40.399Z,2.20
2023-01-18T00:36:10.672Z,0.90
2023-01-18T00:38:39.066Z,2.30
2023-01-18T00:41:07.547Z,1.65
2023-01-18T00:43:41.269Z,2.25
2023-01-18T00:46:12.303Z,2.17
2023-01-18T00:48:41.738Z,1.58
2023-01-18T00:51:14.432Z,1.27
2023-01-18T00:53:44.400Z,1.52
2023-01-18T00:56:15.480Z,1.33
2023-01-18T00:58:44.146Z,2.72
2023-01-18T01:01:14.184Z,1.50
2023-01-18T01:04:00.470Z,1.52
2023-01-18T01:06:45.172Z,1.88
2023-01-18T01:09:17.171Z,1.67
2023-01-18T01:12:06.355Z,2.00
2023-01-18T01:14:55.097Z,1.20
2023-01-18T01:17:41.008Z,1.95
2023-01-18T01:20:29.641Z,2.60
2023-01-18T01:23:25.513Z,1.50
2023-01-18T01:26:09.242Z,1.30
2023-01-18T01:28:38.944Z,1.70
2023-01-18T01:31:10.438Z,1.15
2023-01-18T01:33:39.820Z,1.60
2023-01-18T01:36:12.078Z,1.50
2023-01-18T01:38:42.615Z,1.83
2023-01-18T01:41:17.708Z,1.35
2023-01-18T01:43:49.011Z,1.35
2023-01-18T01:46:40.043Z,1.42
2023-01-18T01:49:14.674Z,1.70
2023-01-18T01:51:45.987Z,1.63
2023-01-18T01:54:22.396Z,1.17
2023-01-18T01:56:52.885Z,3.10
2023-01-18T01:59:21.858Z,1.30
2023-01-18T02:01:50.331Z,1.60
2023-01-18T02:04:19.353Z,1.60
2023-01-18T02:06:47.775Z,1.70
2023-01-18T02:09:23.008Z,2.17
2023-01-18T02:11:52.693Z,1.92
2023-01-18T02:14:25.572Z,1.60
2023-01-18T02:17:14.393Z,2.20
2023-01-18T02:20:40.864Z,1.48
2023-01-18T02:23:36.655Z,1.50
2023-01-18T02:26:49.664Z,2.00
2023-01-18T02:29:22.104Z,2.03
2023-01-18T02:32:12.733Z,1.38
2023-01-18T02:34:46.955Z,2.08
2023-01-18T02:37:25.524Z,1.45
2023-01-18T02:40:13.111Z,1.65
2023-01-18T02:43:02.906Z,1.33
2023-01-18T02:45:54.605Z,1.50
2023-01-18T02:48:25.967Z,1.40
2023-01-18T02:50:54.381Z,1.58
2023-01-18T02:53:22.796Z,1.63
2023-01-18T02:55:56.459Z,1.30
2023-01-18T02:58:30.883Z,1.60
2023-01-18T03:01:06.881Z,1.70
2023-01-18T03:03:36.884Z,1.50
2023-01-18T03:06:09.718Z,1.10
2023-01-18T03:08:44.251Z,1.63
2023-01-18T03:11:17.651Z,1.73
2023-01-18T03:14:09.017Z,2.10
2023-01-18T03:16:58.049Z,2.00
2023-01-18T03:19:59.273Z,1.95
2023-01-18T03:22:49.244Z,1.80
2023-01-18T03:25:26.834Z,3.05
2023-01-18T03:28:14.397Z,1.50
2023-01-18T03:31:02.290Z,1.67
2023-01-18T03:33:45.756Z,1.45
2023-01-18T03:36:21.894Z,1.50
2023-01-18T03:38:55.530Z,1.60
2023-01-18T03:41:29.937Z,1.77
2023-01-18T03:44:04.241Z,1.45
2023-01-18T03:46:34.364Z,1.58
2023-01-18T03:49:04.691Z,2.10
2023-01-18T03:51:48.597Z,2.10
2023-01-18T03:54:25.985Z,2.53
2023-01-18T03:57:01.392Z,2.47
2023-01-18T03:59:35.195Z,1.92
2023-01-18T04:02:05.230Z,2.50
2023-01-18T04:04:35.389Z,2.42
2023-01-18T04:07:03.807Z,1.95
2023-01-18T04:09:32.236Z,2.08
2023-01-18T04:12:00.654Z,1.70
2023-01-18T04:14:29.035Z,1.98
2023-01-18T04:16:57.453Z,2.25
2023-01-18T04:19:26.093Z,1.92
2023-01-18T04:21:55.848Z,1.65
2023-01-18T04:24:24.220Z,2.05
2023-01-18T04:26:52.626Z,2.38
2023-01-18T04:29:20.970Z,1.92
2023-01-18T04:31:49.421Z,1.75
2023-01-18T04:34:17.855Z,1.85
2023-01-18T04:36:46.281Z,1.92
2023-01-18T04:39:16.330Z,2.70
2023-01-18T04:41:44.928Z,2.13
2023-01-18T04:44:14.008Z,2.78
2023-01-18T04:46:42.467Z,2.95
2023-01-18T04:49:15.623Z,1.77
2023-01-18T04:51:45.639Z,2.20
2023-01-18T04:54:18.339Z,1.98
2023-01-18T04:56:46.757Z,2.30
2023-01-18T04:59:17.249Z,1.83
2023-01-18T05:01:45.653Z,2.10
2023-01-18T05:04:14.654Z,1.98
2023-01-18T05:06:43.637Z,2.40
2023-01-18T05:09:13.526Z,2.90
2023-01-18T05:11:44.167Z,2.83
2023-01-18T05:14:12.537Z,2.80
2023-01-18T05:16:41.058Z,3.35
2023-01-18T05:19:09.666Z,2.78
2023-01-18T05:21:38.052Z,3.45
2023-01-18T05:24:07.053Z,2.92
2023-01-18T05:26:35.455Z,2.72
2023-01-18T05:29:05.438Z,3.38
2023-01-18T05:31:33.903Z,3.58
2023-01-18T05:34:02.360Z,3.13
2023-01-18T05:36:30.731Z,2.63
2023-01-18T05:38:59.129Z,2.83
2023-01-18T05:41:27.504Z,2.47
2023-01-18T05:43:55.895Z,2.35
2023-01-18T05:46:25.674Z,3.25
2023-01-18T05:48:58.425Z,2.85
2023-01-18T05:51:27.070Z,3.08
2023-01-18T05:53:55.448Z,3.28
2023-01-18T05:56:23.844Z,2.50
2023-01-18T05:58:52.221Z,3.88
2023-01-18T06:01:20.706Z,4.80
2023-01-18T06:03:50.506Z,3.80
2023-01-18T06:06:18.875Z,4.95
2023-01-18T06:08:47.279Z,6.40
2023-01-18T06:11:15.707Z,5.15
2023-01-18T06:13:44.112Z,4.88
2023-01-18T06:16:13.278Z,5.97
2023-01-18T06:18:41.759Z,5.50
2023-01-18T06:21:12.011Z,4.25
2023-01-18T06:23:40.627Z,4.85
2023-01-18T06:26:09.039Z,5.20
2023-01-18T06:28:37.409Z,5.63
2023-01-18T06:31:08.299Z,5.43
2023-01-18T06:33:36.796Z,4.80
2023-01-18T06:36:05.994Z,5.25
2023-01-18T06:38:35.760Z,5.00
2023-01-18T06:41:04.117Z,5.57
2023-01-18T06:43:32.526Z,5.85
2023-01-18T06:46:01.321Z,4.45
2023-01-18T06:48:29.918Z,4.43
2023-01-18T06:50:59.165Z,5.03
2023-01-18T06:53:27.897Z,7.05
2023-01-18T06:55:59.809Z,5.60
2023-01-18T06:58:31.094Z,6.17
2023-01-18T07:01:01.778Z,6.53
2023-01-18T07:03:32.368Z,6.83
2023-01-18T07:06:04.397Z,6.53
2023-01-18T07:08:33.395Z,6.53
2023-01-18T07:11:06.761Z,8.88
2023-01-18T07:13:35.327Z,6.70
2023-01-18T07:16:03.836Z,7.10
2023-01-18T07:18:32.585Z,6.10
2023-01-18T07:21:03.525Z,6.57
2023-01-18T07:23:32.309Z,8.20
2023-01-18T07:26:07.547Z,8.73
2023-01-18T07:28:37.190Z,9.05
2023-01-18T07:31:08.261Z,7.72
2023-01-18T07:33:37.676Z,10.65
2023-01-18T07:36:09.635Z,8.07
2023-01-18T07:38:40.627Z,6.30
2023-01-18T07:41:14.315Z,6.63
2023-01-18T07:43:44.817Z,9.73
2023-01-18T07:46:18.567Z,6.38
2023-01-18T07:48:47.903Z,8.95
2023-01-18T07:51:16.965Z,8.95
2023-01-18T07:53:45.735Z,6.05
2023-01-18T07:56:17.627Z,7.13
2023-01-18T07:58:46.768Z,8.05
2023-01-18T08:01:17.715Z,22.10
2023-01-18T08:03:48.360Z,6.78
2023-01-18T08:06:20.803Z,9.50
2023-01-18T08:08:49.248Z,7.25
2023-01-18T08:11:19.303Z,6.65
2023-01-18T08:13:49.403Z,8.85
2023-01-18T08:16:18.434Z,8.95
2023-01-18T08:18:49.689Z,8.25
2023-01-18T08:21:18.594Z,8.37
2023-01-18T08:23:47.066Z,9.30
2023-01-18T08:26:16.052Z,8.68
2023-01-18T08:28:45.954Z,9.25
2023-01-18T08:31:17.926Z,12.60
2023-01-18T08:33:48.969Z,8.25
2023-01-18T08:36:20.896Z,8.60
2023-01-18T08:38:50.523Z,7.55
2023-01-18T08:41:19.184Z,6.13
2023-01-18T08:43:52.510Z,8.98
2023-01-18T08:46:21.517Z,7.88
2023-01-18T08:48:51.594Z,6.75
2023-01-18T08:51:21.871Z,9.07
2023-01-18T08:53:51.626Z,7.40
2023-01-18T08:56:21.133Z,6.57
2023-01-18T08:58:52.200Z,8.63
2023-01-18T09:01:23.592Z,5.40
2023-01-18T09:03:55.240Z,4.38
2023-01-18T09:06:24.237Z,4.43
2023-01-18T09:08:53.306Z,3.45
2023-01-18T09:11:21.792Z,4.20
2023-01-18T09:14:00.543Z,2.50
2023-01-18T09:16:30.802Z,3.42
2023-01-18T09:18:59.924Z,2.92
2023-01-18T09:21:29.257Z,3.63
2023-01-18T09:23:58.005Z,4.10
2023-01-18T09:26:27.786Z,3.53
2023-01-18T09:28:57.920Z,9.38
2023-01-18T09:31:28.854Z,4.60
2023-01-18T09:34:17.500Z,7.32
2023-01-18T09:36:47.625Z,3.28
2023-01-18T09:39:16.090Z,5.97
2023-01-18T09:41:47.074Z,5.13
2023-01-18T09:44:25.362Z,2.63
2023-01-18T09:46:59.272Z,2.35
2023-01-18T09:49:36.386Z,2.42
2023-01-18T09:52:25.298Z,4.18
2023-01-18T09:55:02.232Z,3.35
2023-01-18T09:57:47.721Z,3.35
2023-01-18T10:00:23.520Z,3.00
2023-01-18T10:02:55.500Z,3.38
2023-01-18T10:05:30.773Z,3.00
2023-01-18T10:08:07.796Z,3.97
2023-01-18T10:10:40.311Z,3.47
2023-01-18T10:13:38.511Z,3.80
2023-01-18T10:16:15.491Z,1.95
2023-01-18T10:18:48.259Z,2.50
2023-01-18T10:21:27.832Z,1.58
2023-01-18T10:24:30.715Z,3.70
2023-01-18T10:27:25.690Z,5.03
2023-01-18T10:30:14.274Z,2.90
2023-01-18T10:32:56.824Z,2.85
2023-01-18T10:35:32.270Z,2.33
2023-01-18T10:38:05.762Z,5.05
2023-01-18T10:40:35.804Z,1.70
2023-01-18T10:43:04.744Z,4.95
2023-01-18T10:45:36.464Z,1.75
2023-01-18T10:48:28.175Z,1.38
2023-01-18T10:50:59.526Z,6.60
2023-01-18T10:53:32.608Z,2.30
2023-01-18T10:56:08.010Z,2.50
2023-01-18T10:58:45.463Z,3.35
2023-01-18T11:01:19.942Z,2.65
2023-01-18T11:03:54.539Z,2.28
2023-01-18T11:06:24.533Z,1.33
2023-01-18T11:08:53.748Z,1.60
2023-01-18T11:11:45.810Z,2.05
2023-01-18T11:14:26.591Z,3.03
2023-01-18T11:17:03.574Z,6.72
2023-01-18T11:19:33.410Z,19.13
2023-01-18T11:22:03.595Z,2.30
2023-01-18T11:24:34.195Z,4.03
2023-01-18T11:27:08.583Z,2.85
2023-01-18T11:29:39.821Z,2.72
2023-01-18T11:32:19.930Z,0.95
2023-01-18T11:34:53.795Z,1.50
2023-01-18T11:37:35.845Z,2.47
2023-01-18T11:40:28.030Z,2.50
2023-01-18T11:43:03.664Z,0.80
2023-01-18T11:45:37.633Z,0.80
2023-01-18T11:48:15.983Z,0.45
2023-01-18T11:50:53.080Z,0.80
2023-01-18T11:53:34.158Z,1.15
2023-01-18T11:56:08.174Z,1.00
2023-01-18T11:58:37.661Z,0.82
2023-01-18T12:01:49.349Z,0.80
2023-01-18T12:04:34.555Z,0.52
2023-01-18T12:07:22.798Z,0.98
2023-01-18T12:09:56.789Z,0.35
2023-01-18T12:12:43.829Z,0.60
2023-01-18T12:15:52.258Z,0.60
2023-01-18T12:19:06.289Z,0.40
2023-01-18T12:21:46.184Z,1.60
2023-01-18T12:24:45.975Z,1.33
2023-01-18T12:27:26.534Z,0.52
2023-01-18T12:30:36.867Z,0.88
2023-01-18T12:33:28.559Z,1.48
2023-01-18T12:37:04.090Z,0.30
2023-01-18T12:40:03.492Z,0.80
2023-01-18T12:42:48.207Z,3.92
2023-01-18T12:45:29.036Z,1.02
2023-01-18T12:48:11.857Z,3.28
2023-01-18T12:50:43.647Z,1.23
2023-01-18T12:53:19.550Z,2.67
2023-01-18T12:55:53.988Z,2.90
2023-01-18T12:58:26.333Z,1.83
2023-01-18T13:00:59.824Z,3.15
2023-01-18T13:03:37.875Z,3.70
2023-01-18T13:06:06.781Z,1.42
2023-01-18T13:08:42.130Z,3.75
2023-01-18T13:11:19.020Z,6.95
2023-01-18T13:13:48.551Z,6.22
2023-01-18T13:16:33.940Z,1.25
2023-01-18T13:19:06.935Z,0.82
2023-01-18T13:21:51.464Z,0.77
2023-01-18T13:24:34.798Z,0.90
2023-01-18T13:27:12.962Z,0.52
2023-01-18T13:29:42.358Z,1.00
2023-01-18T13:32:29.344Z,4.38
2023-01-18T13:35:18.637Z,1.92
2023-01-18T13:37:51.237Z,5.70
2023-01-18T13:40:37.653Z,2.28
2023-01-18T13:43:26.481Z,2.85
2023-01-18T13:46:20.926Z,2.30
2023-01-18T13:48:54.462Z,1.85
2023-01-18T13:51:54.712Z,1.48
2023-01-18T13:55:03.986Z,0.80
2023-01-18T13:57:36.641Z,1.60
2023-01-18T14:00:24.575Z,1.13
2023-01-18T14:02:56.837Z,2.63
2023-01-18T14:05:28.724Z,1.65
2023-01-18T14:08:00.484Z,12.13
2023-01-18T14:10:33.363Z,3.67
2023-01-18T14:13:03.851Z,2.50
2023-01-18T14:15:52.118Z,1.88
2023-01-18T14:18:26.919Z,2.80
2023-01-18T14:21:12.283Z,3.00
2023-01-18T14:24:14.588Z,0.90
2023-01-18T14:26:44.812Z,2.10
2023-01-18T14:29:20.936Z,7.72
2023-01-18T14:31:54.692Z,4.53
2023-01-18T14:34:42.379Z,4.85
2023-01-18T14:37:29.674Z,1.38
2023-01-18T14:40:16.509Z,2.00
2023-01-18T14:42:51.288Z,4.10
2023-01-18T14:45:27.175Z,1.38
2023-01-18T14:48:01.676Z,2.08
2023-01-18T14:50:38.582Z,3.83
2023-01-18T14:53:12.748Z,2.83
2023-01-18T14:55:41.302Z,1.17
2023-01-18T14:58:17.084Z,3.08
2023-01-18T15:00:49.803Z,1.23
2023-01-18T15:03:28.823Z,10.20
2023-01-18T15:06:09.815Z,3.53
2023-01-18T15:08:40.603Z,6.00
2023-01-18T15:11:09.846Z,2.95
2023-01-18T15:13:50.329Z,2.60
2023-01-18T15:16:22.703Z,1.48
2023-01-18T15:18:55.925Z,3.00
2023-01-18T15:21:28.401Z,3.85
2023-01-18T15:24:03.913Z,2.00
2023-01-18T15:26:40.785Z,2.88
2023-01-18T15:29:16.855Z,2.88
2023-01-18T15:31:54.642Z,1.30
2023-01-18T15:34:30.508Z,0.75
2023-01-18T15:37:01.648Z,3.25
2023-01-18T15:39:32.434Z,2.75
2023-01-18T15:42:07.317Z,3.42
2023-01-18T15:44:44.712Z,4.93
2023-01-18T15:47:25.570Z,3.60
2023-01-18T15:49:58.910Z,6.88
2023-01-18T15:52:43.110Z,3.33
2023-01-18T15:55:24.103Z,1.42
2023-01-18T15:58:00.732Z,0.70
2023-01-18T16:00:42.799Z,1.38
2023-01-18T16:03:21.609Z,1.58
2023-01-18T16:06:13.347Z,3.67
2023-01-18T16:09:10.494Z,1.20
2023-01-18T16:11:49.880Z,2.20
2023-01-18T16:14:25.856Z,1.58
2023-01-18T16:16:55.995Z,5.90
2023-01-18T16:19:30.053Z,3.33
2023-01-18T16:22:03.121Z,2.22
2023-01-18T16:24:36.812Z,1.73
2023-01-18T16:27:13.195Z,2.35
2023-01-18T16:29:45.099Z,4.50
2023-01-18T16:32:32.169Z,2.70
2023-01-18T16:35:03.967Z,3.33
2023-01-18T16:37:36.218Z,3.53
2023-01-18T16:40:08.894Z,5.63
2023-01-18T16:42:59.991Z,5.43
2023-01-18T16:45:29.534Z,5.25
2023-01-18T16:48:00.873Z,5.63
2023-01-18T16:50:30.218Z,5.25
2023-01-18T16:53:00.667Z,5.20
2023-01-18T16:55:31.279Z,4.45
2023-01-18T16:58:00.900Z,4.03
2023-01-18T17:00:38.419Z,3.47
2023-01-18T17:03:07.508Z,3.85
2023-01-18T17:05:39.366Z,4.50
2023-01-18T17:08:14.540Z,6.78
2023-01-18T17:10:47.857Z,8.95
2023-01-18T17:13:18.123Z,6.43
2023-01-18T17:15:47.410Z,7.30
2023-01-18T17:18:18.376Z,6.93
2023-01-18T17:20:47.959Z,5.85
2023-01-18T17:23:18.896Z,4.47
2023-01-18T17:25:48.076Z,4.60
2023-01-18T17:28:20.890Z,7.60
2023-01-18T17:30:50.855Z,7.50
2023-01-18T17:33:22.791Z,5.50
2023-01-18T17:35:54.380Z,7.15
2023-01-18T17:38:30.597Z,5.60
2023-01-18T17:41:01.168Z,7.35
2023-01-18T17:43:34.043Z,6.05
2023-01-18T17:46:09.266Z,5.20
2023-01-18T17:48:37.896Z,6.97
2023-01-18T17:51:08.476Z,6.75
2023-01-18T17:53:40.683Z,12.10
2023-01-18T17:56:12.084Z,9.13
2023-01-18T17:58:41.716Z,13.07
2023-01-18T18:01:16.043Z,13.18
2023-01-18T18:03:52.821Z,16.92
2023-01-18T18:06:30.875Z,10.63
2023-01-18T18:09:06.776Z,8.75
2023-01-18T18:11:37.125Z,13.93
2023-01-18T18:14:06.522Z,10.20
2023-01-18T18:16:43.250Z,10.70
2023-01-18T18:19:15.116Z,8.80
2023-01-18T18:21:48.527Z,11.20
2023-01-18T18:24:20.845Z,9.30
2023-01-18T18:26:51.904Z,9.88
2023-01-18T18:29:21.973Z,11.20
2023-01-18T18:31:52.773Z,11.63
2023-01-18T18:34:22.673Z,13.07
2023-01-18T18:36:55.291Z,6.90
2023-01-18T18:39:26.642Z,9.32
2023-01-18T18:41:57.203Z,8.32
2023-01-18T18:44:27.766Z,7.03
2023-01-18T18:46:57.520Z,9.73
2023-01-18T18:49:28.127Z,8.35
2023-01-18T18:52:00.674Z,5.93
2023-01-18T18:54:33.914Z,7.68
2023-01-18T18:57:04.623Z,8.55
2023-01-18T18:59:34.659Z,5.72
2023-01-18T19:02:04.953Z,9.70
2023-01-18T19:04:34.999Z,4.57
2023-01-18T19:07:05.862Z,5.90
2023-01-18T19:09:38.453Z,5.75
2023-01-18T19:12:11.755Z,7.90
2023-01-18T19:14:41.177Z,6.95
2023-01-18T19:17:29.807Z,10.63
2023-01-18T19:20:01.370Z,7.50
2023-01-18T19:22:31.311Z,7.50
2023-01-18T19:25:04.108Z,10.85
2023-01-18T19:27:35.085Z,7.43
2023-01-18T19:30:11.007Z,19.38
2023-01-18T19:32:41.454Z,9.38
2023-01-18T19:35:12.841Z,10.88
2023-01-18T19:37:42.662Z,12.38
2023-01-18T19:40:19.092Z,12.00
2023-01-18T19:42:55.476Z,12.30
2023-01-18T19:45:28.797Z,15.13
2023-01-18T19:48:02.536Z,14.52
2023-01-18T19:50:33.582Z,9.55
2023-01-18T19:53:03.985Z,7.13
2023-01-18T19:55:39.904Z,8.65
2023-01-18T19:58:10.201Z,8.27
2023-01-18T20:00:41.884Z,6.55
2023-01-18T20:03:15.843Z,8.38
2023-01-18T20:05:47.094Z,6.10
2023-01-18T20:08:17.385Z,6.65
2023-01-18T20:10:49.115Z,7.80
2023-01-18T20:13:21.031Z,8.27
2023-01-18T20:15:54.439Z,5.82
2023-01-18T20:18:24.373Z,9.93
2023-01-18T20:20:58.711Z,5.90
2023-01-18T20:23:30.323Z,7.15
2023-01-18T20:26:01.897Z,8.52
2023-01-18T20:28:31.765Z,7.40
2023-01-18T20:31:04.078Z,5.75
2023-01-18T20:33:33.989Z,10.32
2023-01-18T20:36:04.368Z,6.47
2023-01-18T20:38:35.950Z,7.15
2023-01-18T20:41:09.641Z,9.07
2023-01-18T20:43:40.073Z,8.82
2023-01-18T20:46:12.563Z,11.07
2023-01-18T20:48:42.095Z,7.75
2023-01-18T20:51:11.765Z,11.27
2023-01-18T20:53:41.116Z,7.38
2023-01-18T20:56:28.370Z,8.15
2023-01-18T20:58:59.758Z,7.43
2023-01-18T21:01:33.410Z,5.28
2023-01-18T21:04:04.712Z,5.93
2023-01-18T21:06:33.530Z,5.35
2023-01-18T21:09:04.340Z,5.68
2023-01-18T21:11:34.233Z,5.85
2023-01-18T21:14:04.656Z,8.48
2023-01-18T21:16:33.697Z,6.18
2023-01-18T21:19:02.465Z,5.82
2023-01-18T21:21:31.984Z,5.57
2023-01-18T21:24:01.593Z,4.68
2023-01-18T21:26:30.793Z,5.32
2023-01-18T21:29:00.871Z,5.50
2023-01-18T21:31:29.660Z,25.10
2023-01-18T21:33:58.190Z,5.50
2023-01-18T21:36:26.966Z,6.35
2023-01-18T21:38:55.621Z,10.45
2023-01-18T21:41:41.545Z,7.43
2023-01-18T21:44:30.314Z,7.07
2023-01-18T21:46:59.684Z,6.20
2023-01-18T21:50:19.435Z,5.55
2023-01-18T21:52:51.888Z,3.58
2023-01-18T21:55:21.147Z,5.28
2023-01-18T21:58:09.559Z,3.90
2023-01-18T22:00:42.378Z,4.07
2023-01-18T22:03:13.107Z,2.00
2023-01-18T22:05:41.595Z,2.33
2023-01-18T22:08:10.613Z,2.08
2023-01-18T22:10:39.045Z,2.20
2023-01-18T22:13:07.512Z,1.55
2023-01-18T22:15:35.956Z,2.38
2023-01-18T22:18:06.966Z,2.47
2023-01-18T22:20:35.390Z,2.83
2023-01-18T22:23:03.757Z,6.43
2023-01-18T22:25:32.236Z,2.90
2023-01-18T22:28:01.029Z,2.53
2023-01-18T22:30:29.904Z,1.88
2023-01-18T22:32:58.432Z,3.58
2023-01-18T22:35:28.229Z,2.80
2023-01-18T22:37:56.731Z,3.85
2023-01-18T22:40:25.166Z,3.17
2023-01-18T22:42:53.569Z,3.83
2023-01-18T22:45:21.987Z,3.63
2023-01-18T22:47:50.462Z,4.28
2023-01-18T22:50:19.432Z,3.97
2023-01-18T22:52:49.168Z,4.63
2023-01-18T22:55:17.904Z,3.55
2023-01-18T22:57:46.306Z,3.60
2023-01-18T23:00:16.331Z,3.78
2023-01-18T23:02:44.718Z,3.75
2023-01-18T23:05:13.417Z,4.65
2023-01-18T23:07:41.831Z,5.05
2023-01-18T23:10:12.233Z,3.30
2023-01-18T23:12:40.646Z,3.85
2023-01-18T23:15:28.883Z,7.85
2023-01-18T23:17:57.811Z,4.07
2023-01-18T23:20:26.717Z,4.00
2023-01-18T23:22:55.241Z,5.00
2023-01-18T23:25:25.772Z,3.90
2023-01-18T23:27:54.221Z,3.17
2023-01-18T23:30:22.935Z,4.10
2023-01-18T23:32:51.357Z,3.78
2023-01-18T23:35:19.813Z,3.72
2023-01-18T23:37:48.237Z,3.75
2023-01-18T23:40:34.257Z,4.20
2023-01-18T23:43:21.515Z,3.03
2023-01-18T23:46:07.163Z,5.60
2023-01-18T23:48:53.119Z,6.40
2023-01-18T23:51:38.756Z,4.20
2023-01-18T23:54:16.967Z,3.47
2023-01-18T23:56:46.679Z,3.70
2023-01-18T23:59:16.487Z,3.83
